createdAt,value
2022-12-11T00:01:15.919Z,99.52
2022-12-11T00:03:42.738Z,99.27
2022-12-11T00:06:11.818Z,99.20
2022-12-11T00:08:39.144Z,99.07
2022-12-11T00:11:08.876Z,99.20
2022-12-11T00:13:35.644Z,99.27
2022-12-11T00:16:02.080Z,99.47
2022-12-11T00:18:28.483Z,99.45
2022-12-11T00:20:55.072Z,99.32
2022-12-11T00:23:21.624Z,99.57
2022-12-11T00:25:48.201Z,99.48
2022-12-11T00:28:16.847Z,99.12
2022-12-11T00:30:43.380Z,99.47
2022-12-11T00:33:10.750Z,99.45
2022-12-11T00:35:41.843Z,99.47
2022-12-11T00:38:08.711Z,99.61
2022-12-11T00:40:36.824Z,99.00
2022-12-11T00:43:03.996Z,99.13
2022-12-11T00:45:30.548Z,99.29
2022-12-11T00:47:58.109Z,99.34
2022-12-11T00:50:24.667Z,99.56
2022-12-11T00:52:51.169Z,99.51
2022-12-11T00:55:18.348Z,99.27
2022-12-11T00:57:44.739Z,99.60
2022-12-11T01:00:12.650Z,99.48
2022-12-11T01:02:39.207Z,99.55
2022-12-11T01:05:06.233Z,99.27
2022-12-11T01:07:32.611Z,99.41
2022-12-11T01:10:17.715Z,99.11
2022-12-11T01:12:44.129Z,99.85
2022-12-11T01:15:12.251Z,99.54
2022-12-11T01:17:38.971Z,99.35
2022-12-11T01:20:05.816Z,99.50
2022-12-11T01:22:32.343Z,99.75
2022-12-11T01:24:59.227Z,99.45
2022-12-11T01:27:25.975Z,99.28
2022-12-11T01:29:52.546Z,99.39
2022-12-11T01:32:19.047Z,99.66
2022-12-11T01:34:45.778Z,99.86
2022-12-11T01:37:12.216Z,99.46
2022-12-11T01:39:38.849Z,99.35
2022-12-11T01:42:10.227Z,99.45
2022-12-11T01:44:37.328Z,99.88
2022-12-11T01:47:03.788Z,99.88
2022-12-11T01:49:30.301Z,99.75
2022-12-11T01:52:03.295Z,99.33
2022-12-11T01:54:30.519Z,99.69
2022-12-11T01:57:00.670Z,99.45
2022-12-11T01:59:30.993Z,99.72
2022-12-11T02:02:03.361Z,99.49
2022-12-11T02:04:30.864Z,99.58
2022-12-11T02:06:57.461Z,99.75
2022-12-11T02:09:27.106Z,99.45
2022-12-11T02:12:03.164Z,99.61
2022-12-11T02:14:29.583Z,99.96
2022-12-11T02:17:03.842Z,99.65
2022-12-11T02:19:53.022Z,99.89
2022-12-11T02:22:55.304Z,99.64
2022-12-11T02:25:38.064Z,99.93
2022-12-11T02:28:24.028Z,99.71
2022-12-11T02:30:57.096Z,99.55
2022-12-11T02:33:38.987Z,99.98
2022-12-11T02:36:08.034Z,100.00
2022-12-11T02:38:39.156Z,99.57
2022-12-11T02:41:08.555Z,99.86
2022-12-11T02:43:37.574Z,99.74
2022-12-11T02:46:07.484Z,100.00
2022-12-11T02:48:36.345Z,100.00
2022-12-11T02:51:05.754Z,99.82
2022-12-11T02:53:37.545Z,99.88
2022-12-11T02:56:21.046Z,99.93
2022-12-11T02:58:58.651Z,99.47
2022-12-11T03:01:26.793Z,100.00
2022-12-11T03:03:55.475Z,99.57
2022-12-11T03:06:26.365Z,99.77
2022-12-11T03:08:52.907Z,99.95
2022-12-11T03:11:19.308Z,99.90
2022-12-11T03:13:45.842Z,99.68
2022-12-11T03:16:31.238Z,99.59
2022-12-11T03:19:00.654Z,100.00
2022-12-11T03:21:36.024Z,99.86
2022-12-11T03:24:09.052Z,99.63
2022-12-11T03:26:54.507Z,99.91
2022-12-11T03:29:37.775Z,99.88
2022-12-11T03:32:15.374Z,99.74
2022-12-11T03:34:48.491Z,99.81
2022-12-11T03:37:16.818Z,99.71
2022-12-11T03:39:49.242Z,99.94
2022-12-11T03:42:19.143Z,99.99
2022-12-11T03:44:49.534Z,99.52
2022-12-11T03:47:20.572Z,99.33
2022-12-11T03:49:48.683Z,99.45
2022-12-11T03:52:17.185Z,99.71
2022-12-11T03:54:47.484Z,99.55
2022-12-11T03:57:18.011Z,99.60
2022-12-11T03:59:44.657Z,99.39
2022-12-11T04:02:11.184Z,99.69
2022-12-11T04:04:39.079Z,99.49
2022-12-11T04:07:05.711Z,99.40
2022-12-11T04:09:32.409Z,99.25
2022-12-11T04:11:58.831Z,99.11
2022-12-11T04:14:43.801Z,99.15
2022-12-11T04:17:10.318Z,99.42
2022-12-11T04:19:55.269Z,98.99
2022-12-11T04:22:40.615Z,99.05
2022-12-11T04:25:08.406Z,99.43
2022-12-11T04:27:50.106Z,99.27
2022-12-11T04:30:29.313Z,98.99
2022-12-11T04:32:58.983Z,99.38
2022-12-11T04:35:25.415Z,99.13
2022-12-11T04:37:53.047Z,99.28
2022-12-11T04:40:20.312Z,99.03
2022-12-11T04:42:46.968Z,98.86
2022-12-11T04:45:13.772Z,98.77
2022-12-11T04:47:41.501Z,99.26
2022-12-11T04:50:10.487Z,98.88
2022-12-11T04:52:36.988Z,98.94
2022-12-11T04:55:08.164Z,98.62
2022-12-11T04:57:35.168Z,98.96
2022-12-11T05:00:02.237Z,99.04
2022-12-11T05:02:28.751Z,98.59
2022-12-11T05:04:55.208Z,98.97
2022-12-11T05:07:21.639Z,98.95
2022-12-11T05:09:48.110Z,98.64
2022-12-11T05:12:14.645Z,98.98
2022-12-11T05:14:41.083Z,98.46
2022-12-11T05:17:07.470Z,98.72
2022-12-11T05:19:33.911Z,98.66
2022-12-11T05:22:00.278Z,98.79
2022-12-11T05:24:26.740Z,98.24
2022-12-11T05:26:53.152Z,98.35
2022-12-11T05:29:19.590Z,98.49
2022-12-11T05:31:46.139Z,98.21
2022-12-11T05:34:12.724Z,98.16
2022-12-11T05:36:39.330Z,98.43
2022-12-11T05:39:05.779Z,98.28
2022-12-11T05:41:32.836Z,98.08
2022-12-11T05:43:59.574Z,98.04
2022-12-11T05:46:28.673Z,98.24
2022-12-11T05:48:59.961Z,98.31
2022-12-11T05:51:28.792Z,98.33
2022-12-11T05:53:57.034Z,98.07
2022-12-11T05:56:28.536Z,97.86
2022-12-11T05:58:55.855Z,98.08
2022-12-11T06:01:26.247Z,97.90
2022-12-11T06:03:54.136Z,97.77
2022-12-11T06:06:21.269Z,98.04
2022-12-11T06:08:51.128Z,98.14
2022-12-11T06:11:22.424Z,97.92
2022-12-11T06:13:50.765Z,97.69
2022-12-11T06:16:17.335Z,98.22
2022-12-11T06:18:45.091Z,98.07
2022-12-11T06:21:30.698Z,98.14
2022-12-11T06:23:59.303Z,98.04
2022-12-11T06:26:26.696Z,97.99
2022-12-11T06:28:53.262Z,97.98
2022-12-11T06:31:20.956Z,97.98
2022-12-11T06:33:47.824Z,98.13
2022-12-11T06:36:17.315Z,98.07
2022-12-11T06:38:44.251Z,98.18
2022-12-11T06:41:11.466Z,97.93
2022-12-11T06:43:40.158Z,98.17
2022-12-11T06:46:14.928Z,97.69
2022-12-11T06:48:42.506Z,98.03
2022-12-11T06:51:12.346Z,97.86
2022-12-11T06:53:39.061Z,97.89
2022-12-11T06:56:08.223Z,97.86
2022-12-11T06:58:36.203Z,97.88
2022-12-11T07:01:04.611Z,97.84
2022-12-11T07:03:31.173Z,98.09
2022-12-11T07:06:04.632Z,97.58
2022-12-11T07:08:31.981Z,97.54
2022-12-11T07:11:10.392Z,97.79
2022-12-11T07:13:37.235Z,97.34
2022-12-11T07:16:05.732Z,97.25
2022-12-11T07:18:32.710Z,97.30
2022-12-11T07:21:02.605Z,97.43
2022-12-11T07:23:29.391Z,97.27
2022-12-11T07:25:56.400Z,97.42
2022-12-11T07:28:23.081Z,97.41
2022-12-11T07:30:49.712Z,97.18
2022-12-11T07:33:16.133Z,97.10
2022-12-11T07:35:43.626Z,97.54
2022-12-11T07:38:10.090Z,96.95
2022-12-11T07:40:36.857Z,96.99
2022-12-11T07:43:03.596Z,97.29
2022-12-11T07:45:30.146Z,97.11
2022-12-11T07:47:56.635Z,97.26
2022-12-11T07:50:23.180Z,97.28
2022-12-11T07:52:49.696Z,97.13
2022-12-11T07:55:16.232Z,96.95
2022-12-11T07:57:42.656Z,96.54
2022-12-11T08:00:10.621Z,96.54
2022-12-11T08:02:37.741Z,96.78
2022-12-11T08:05:05.148Z,96.52
2022-12-11T08:07:34.608Z,96.49
2022-12-11T08:10:01.194Z,96.68
2022-12-11T08:12:27.572Z,96.64
2022-12-11T08:14:54.203Z,96.60
2022-12-11T08:17:24.502Z,96.30
2022-12-11T08:19:53.876Z,96.16
2022-12-11T08:22:20.319Z,96.39
2022-12-11T08:24:47.241Z,96.02
2022-12-11T08:27:13.760Z,96.52
2022-12-11T08:29:40.477Z,96.16
2022-12-11T08:32:12.104Z,96.25
2022-12-11T08:34:39.004Z,96.16
2022-12-11T08:37:05.462Z,96.56
2022-12-11T08:39:32.081Z,96.35
2022-12-11T08:41:58.866Z,96.54
2022-12-11T08:44:26.827Z,96.19
2022-12-11T08:46:53.235Z,96.28
2022-12-11T08:49:19.690Z,96.52
2022-12-11T08:51:46.085Z,95.91
2022-12-11T08:54:12.576Z,95.93
2022-12-11T08:56:39.348Z,95.96
2022-12-11T08:59:06.307Z,95.86
2022-12-11T09:01:35.150Z,95.71
2022-12-11T09:04:01.762Z,95.71
2022-12-11T09:06:30.366Z,95.95
2022-12-11T09:08:59.644Z,95.63
2022-12-11T09:11:29.222Z,95.78
2022-12-11T09:13:56.003Z,95.65
2022-12-11T09:16:24.984Z,95.89
2022-12-11T09:18:53.553Z,96.08
2022-12-11T09:21:22.951Z,95.85
2022-12-11T09:23:53.325Z,95.81
2022-12-11T09:26:20.138Z,96.19
2022-12-11T09:28:47.430Z,96.02
2022-12-11T09:31:14.119Z,95.92
2022-12-11T09:33:41.004Z,95.85
2022-12-11T09:36:08.264Z,95.99
2022-12-11T09:38:36.627Z,95.96
2022-12-11T09:41:35.544Z,96.06
2022-12-11T09:44:15.204Z,96.00
2022-12-11T09:46:42.460Z,95.81
2022-12-11T09:49:22.779Z,96.06
2022-12-11T09:52:00.310Z,95.81
2022-12-11T09:54:27.111Z,95.63
2022-12-11T09:57:09.086Z,95.59
2022-12-11T10:00:04.489Z,95.47
2022-12-11T10:03:06.915Z,95.51
2022-12-11T10:05:44.356Z,95.50
2022-12-11T10:08:30.808Z,95.73
2022-12-11T10:11:28.051Z,95.92
2022-12-11T10:14:37.631Z,95.57
2022-12-11T10:17:12.355Z,95.58
2022-12-11T10:19:41.412Z,95.48
2022-12-11T10:22:18.946Z,95.14
2022-12-11T10:25:12.609Z,95.41
2022-12-11T10:27:40.599Z,95.80
2022-12-11T10:30:13.084Z,95.31
2022-12-11T10:32:59.969Z,94.91
2022-12-11T10:35:29.094Z,95.39
2022-12-11T10:38:01.502Z,94.90
2022-12-11T10:40:29.322Z,94.97
2022-12-11T10:42:56.095Z,94.89
2022-12-11T10:45:22.519Z,94.57
2022-12-11T10:47:49.100Z,94.67
2022-12-11T10:50:25.153Z,94.63
2022-12-11T10:52:52.662Z,94.42
2022-12-11T10:55:24.502Z,94.36
2022-12-11T10:58:00.963Z,94.51
2022-12-11T11:00:39.191Z,94.50
2022-12-11T11:03:18.924Z,94.28
2022-12-11T11:05:49.402Z,94.37
2022-12-11T11:08:20.064Z,94.13
2022-12-11T11:10:55.075Z,94.45
2022-12-11T11:13:24.357Z,94.31
2022-12-11T11:16:00.546Z,94.45
2022-12-11T11:18:29.414Z,94.31
2022-12-11T11:20:56.209Z,94.21
2022-12-11T11:23:24.661Z,94.47
2022-12-11T11:25:57.566Z,94.30
2022-12-11T11:28:30.807Z,94.28
2022-12-11T11:31:02.339Z,94.37
2022-12-11T11:33:30.831Z,94.10
2022-12-11T11:36:08.149Z,94.12
2022-12-11T11:38:44.627Z,94.13
2022-12-11T11:41:25.820Z,94.20
2022-12-11T11:43:57.699Z,94.26
2022-12-11T11:46:35.103Z,94.12
2022-12-11T11:49:11.922Z,93.99
2022-12-11T11:52:12.340Z,94.16
2022-12-11T11:54:41.724Z,94.02
2022-12-11T11:57:37.504Z,93.89
2022-12-11T12:00:20.674Z,94.15
2022-12-11T12:02:51.158Z,94.01
2022-12-11T12:05:25.812Z,93.85
2022-12-11T12:08:11.541Z,93.72
2022-12-11T12:10:55.777Z,93.55
2022-12-11T12:13:51.453Z,93.51
2022-12-11T12:16:52.372Z,93.66
2022-12-11T12:19:47.783Z,93.66
2022-12-11T12:22:28.023Z,93.65
2022-12-11T12:25:22.338Z,93.69
2022-12-11T12:28:12.298Z,93.69
2022-12-11T12:30:50.927Z,93.78
2022-12-11T12:33:20.270Z,93.23
2022-12-11T12:36:07.074Z,93.26
2022-12-11T12:38:49.591Z,92.97
2022-12-11T12:41:24.859Z,93.07
2022-12-11T12:44:14.708Z,93.01
2022-12-11T12:47:00.609Z,92.77
2022-12-11T12:49:40.806Z,92.96
2022-12-11T12:52:32.317Z,92.97
2022-12-11T12:55:13.931Z,92.85
2022-12-11T12:57:54.975Z,92.70
2022-12-11T13:00:39.023Z,92.72
2022-12-11T13:03:18.397Z,92.95
2022-12-11T13:05:59.152Z,92.80
2022-12-11T13:08:28.735Z,92.74
2022-12-11T13:11:32.784Z,92.91
2022-12-11T13:14:06.636Z,92.75
2022-12-11T13:16:41.684Z,92.83
2022-12-11T13:19:23.288Z,92.75
2022-12-11T13:22:21.513Z,92.92
2022-12-11T13:25:01.787Z,92.66
2022-12-11T13:27:40.134Z,92.43
2022-12-11T13:30:15.870Z,92.81
2022-12-11T13:32:50.004Z,92.44
2022-12-11T13:35:18.116Z,92.87
2022-12-11T13:37:46.722Z,92.71
2022-12-11T13:40:20.871Z,92.80
2022-12-11T13:42:55.287Z,92.97
2022-12-11T13:45:35.321Z,92.93
2022-12-11T13:48:02.223Z,93.33
2022-12-11T13:50:32.172Z,92.89
2022-12-11T13:53:00.832Z,92.74
2022-12-11T13:55:32.776Z,93.22
2022-12-11T13:58:00.136Z,93.17
2022-12-11T14:00:32.627Z,92.88
2022-12-11T14:03:04.749Z,92.98
2022-12-11T14:05:31.526Z,92.92
2022-12-11T14:08:03.007Z,93.13
2022-12-11T14:10:33.058Z,93.10
2022-12-11T14:12:59.741Z,93.01
2022-12-11T14:15:28.146Z,93.10
2022-12-11T14:17:55.818Z,93.29
2022-12-11T14:20:29.014Z,93.30
2022-12-11T14:23:17.877Z,93.43
2022-12-11T14:25:54.136Z,93.19
2022-12-11T14:28:21.526Z,93.39
2022-12-11T14:30:51.860Z,93.22
2022-12-11T14:33:23.003Z,93.14
2022-12-11T14:35:52.520Z,93.68
2022-12-11T14:38:21.584Z,93.52
2022-12-11T14:40:51.912Z,93.46
2022-12-11T14:43:45.806Z,93.43
2022-12-11T14:46:21.798Z,93.42
2022-12-11T14:49:00.456Z,93.42
2022-12-11T14:51:33.868Z,93.26
2022-12-11T14:54:00.945Z,93.09
2022-12-11T14:56:30.219Z,93.29
2022-12-11T14:59:00.684Z,93.32
2022-12-11T15:01:30.335Z,93.01
2022-12-11T15:04:24.579Z,93.24
2022-12-11T15:06:52.074Z,93.30
2022-12-11T15:09:25.471Z,93.50
2022-12-11T15:11:55.131Z,93.66
2022-12-11T15:14:23.837Z,93.72
2022-12-11T15:16:53.490Z,93.48
2022-12-11T15:19:29.172Z,93.71
2022-12-11T15:22:02.235Z,93.77
2022-12-11T15:24:36.406Z,94.09
2022-12-11T15:27:03.000Z,94.22
2022-12-11T15:29:36.794Z,94.27
2022-12-11T15:32:23.503Z,94.14
2022-12-11T15:34:56.359Z,94.02
2022-12-11T15:37:31.733Z,93.99
2022-12-11T15:40:01.468Z,94.20
2022-12-11T15:42:32.284Z,94.11
2022-12-11T15:44:59.833Z,93.85
2022-12-11T15:47:29.197Z,94.00
2022-12-11T15:50:26.045Z,94.15
2022-12-11T15:52:54.862Z,94.00
2022-12-11T15:55:23.199Z,94.33
2022-12-11T15:57:54.432Z,94.44
2022-12-11T16:00:21.753Z,93.93
2022-12-11T16:02:48.404Z,94.34
2022-12-11T16:05:15.480Z,94.35
2022-12-11T16:07:42.169Z,94.19
2022-12-11T16:10:14.284Z,94.29
2022-12-11T16:12:40.762Z,94.00
2022-12-11T16:15:07.748Z,93.92
2022-12-11T16:17:34.259Z,94.26
2022-12-11T16:20:00.737Z,93.99
2022-12-11T16:22:27.369Z,94.02
2022-12-11T16:24:55.014Z,94.15
2022-12-11T16:27:23.360Z,94.37
2022-12-11T16:29:50.787Z,94.03
2022-12-11T16:32:18.561Z,94.31
2022-12-11T16:34:45.228Z,94.01
2022-12-11T16:37:11.663Z,93.95
2022-12-11T16:39:38.588Z,94.03
2022-12-11T16:42:05.932Z,94.05
2022-12-11T16:44:33.655Z,93.76
2022-12-11T16:47:00.219Z,93.78
2022-12-11T16:49:26.820Z,94.11
2022-12-11T16:51:53.211Z,93.84
2022-12-11T16:54:19.596Z,93.69
2022-12-11T16:56:46.187Z,94.03
2022-12-11T16:59:12.987Z,94.22
2022-12-11T17:01:40.041Z,94.31
2022-12-11T17:04:06.994Z,94.21
2022-12-11T17:06:33.587Z,94.13
2022-12-11T17:09:00.568Z,93.96
2022-12-11T17:11:27.186Z,93.89
2022-12-11T17:13:56.375Z,93.86
2022-12-11T17:16:26.028Z,94.26
2022-12-11T17:18:53.353Z,94.11
2022-12-11T17:21:22.306Z,94.49
2022-12-11T17:23:49.425Z,94.33
2022-12-11T17:26:16.820Z,94.22
2022-12-11T17:28:43.611Z,94.13
2022-12-11T17:31:15.066Z,94.34
2022-12-11T17:33:41.669Z,94.25
2022-12-11T17:36:09.011Z,94.36
2022-12-11T17:38:35.775Z,94.01
2022-12-11T17:41:06.530Z,94.13
2022-12-11T17:43:33.297Z,94.37
2022-12-11T17:45:59.901Z,94.54
2022-12-11T17:48:26.445Z,94.06
2022-12-11T17:50:53.163Z,94.15
2022-12-11T17:53:21.445Z,93.95
2022-12-11T17:55:48.855Z,94.38
2022-12-11T17:58:17.780Z,94.31
2022-12-11T18:00:46.371Z,94.02
2022-12-11T18:03:13.335Z,94.24
2022-12-11T18:05:45.021Z,94.24
2022-12-11T18:08:24.549Z,93.95
2022-12-11T18:10:52.369Z,93.88
2022-12-11T18:13:19.294Z,94.04
2022-12-11T18:15:45.909Z,94.32
2022-12-11T18:18:12.525Z,94.12
2022-12-11T18:20:39.872Z,94.34
2022-12-11T18:23:06.820Z,94.25
2022-12-11T18:25:33.279Z,94.21
2022-12-11T18:28:00.350Z,94.44
2022-12-11T18:30:26.852Z,94.25
2022-12-11T18:32:53.336Z,94.40
2022-12-11T18:35:19.902Z,94.26
2022-12-11T18:37:46.310Z,94.19
2022-12-11T18:40:12.865Z,94.43
2022-12-11T18:42:39.364Z,94.28
2022-12-11T18:45:06.945Z,94.73
2022-12-11T18:47:34.014Z,94.52
2022-12-11T18:50:07.208Z,94.34
2022-12-11T18:52:34.725Z,94.27
2022-12-11T18:55:01.419Z,94.31
2022-12-11T18:57:27.939Z,93.73
2022-12-11T18:59:54.601Z,94.02
2022-12-11T19:02:21.952Z,93.54
2022-12-11T19:04:48.535Z,93.21
2022-12-11T19:07:15.358Z,93.24
2022-12-11T19:09:47.613Z,93.55
2022-12-11T19:12:14.703Z,92.84
2022-12-11T19:14:41.526Z,92.79
2022-12-11T19:17:07.988Z,92.49
2022-12-11T19:19:34.605Z,92.44
2022-12-11T19:22:01.075Z,92.57
2022-12-11T19:24:27.829Z,92.84
2022-12-11T19:26:54.405Z,92.13
2022-12-11T19:29:26.986Z,92.32
2022-12-11T19:31:55.826Z,91.81
2022-12-11T19:34:22.830Z,91.92
2022-12-11T19:36:50.293Z,91.39
2022-12-11T19:39:17.188Z,91.69
2022-12-11T19:41:43.794Z,91.54
2022-12-11T19:44:10.748Z,91.61
2022-12-11T19:46:38.104Z,91.73
2022-12-11T19:49:05.466Z,91.31
2022-12-11T19:51:38.662Z,91.69
2022-12-11T19:54:08.192Z,91.40
2022-12-11T19:56:36.076Z,91.49
2022-12-11T19:59:04.395Z,91.88
2022-12-11T20:01:32.345Z,91.49
2022-12-11T20:04:01.469Z,91.71
2022-12-11T20:06:29.515Z,92.06
2022-12-11T20:08:56.173Z,92.20
2022-12-11T20:11:22.839Z,91.76
2022-12-11T20:13:50.659Z,91.72
2022-12-11T20:16:25.093Z,91.82
2022-12-11T20:19:05.158Z,92.01
2022-12-11T20:21:31.666Z,91.76
2022-12-11T20:23:58.157Z,91.84
2022-12-11T20:26:25.487Z,91.77
2022-12-11T20:28:52.819Z,91.63
2022-12-11T20:31:22.833Z,91.88
2022-12-11T20:33:49.963Z,91.87
2022-12-11T20:36:18.568Z,91.94
2022-12-11T20:38:45.210Z,91.95
2022-12-11T20:41:14.107Z,91.90
2022-12-11T20:43:41.039Z,91.99
2022-12-11T20:46:09.781Z,92.04
2022-12-11T20:48:38.003Z,92.12
2022-12-11T20:51:07.108Z,92.33
2022-12-11T20:53:34.894Z,92.11
2022-12-11T20:56:01.880Z,91.93
2022-12-11T20:58:28.430Z,92.33
2022-12-11T21:00:55.037Z,92.35
2022-12-11T21:03:21.601Z,92.23
2022-12-11T21:05:48.031Z,92.34
2022-12-11T21:08:14.664Z,92.15
2022-12-11T21:10:43.487Z,92.49
2022-12-11T21:13:09.983Z,92.01
2022-12-11T21:15:37.257Z,92.03
2022-12-11T21:18:03.789Z,92.23
2022-12-11T21:20:30.432Z,91.98
2022-12-11T21:22:57.597Z,92.18
2022-12-11T21:25:25.272Z,91.94
2022-12-11T21:27:51.983Z,91.59
2022-12-11T21:30:18.967Z,91.30
2022-12-11T21:32:46.109Z,91.62
2022-12-11T21:35:12.919Z,91.42
2022-12-11T21:37:41.730Z,91.14
2022-12-11T21:40:09.310Z,91.38
2022-12-11T21:42:36.290Z,91.39
2022-12-11T21:47:50.128Z,91.44
2022-12-11T21:50:17.127Z,91.58
2022-12-11T21:52:43.675Z,91.75
2022-12-11T21:55:12.336Z,91.90
2022-12-11T21:57:39.084Z,91.90
2022-12-11T22:00:06.565Z,91.84
2022-12-11T22:02:37.485Z,91.77
2022-12-11T22:05:07.889Z,92.01
2022-12-11T22:07:34.432Z,91.71
2022-12-11T22:10:00.962Z,91.77
2022-12-11T22:12:28.446Z,91.99
2022-12-11T22:14:55.317Z,92.06
2022-12-11T22:17:22.161Z,91.66
2022-12-11T22:19:49.000Z,91.71
2022-12-11T22:22:15.545Z,91.77
2022-12-11T22:24:42.127Z,91.90
2022-12-11T22:27:08.661Z,91.94
2022-12-11T22:29:35.550Z,91.80
2022-12-11T22:32:02.078Z,92.03
2022-12-11T22:34:28.568Z,91.89
2022-12-11T22:36:56.243Z,92.06
2022-12-11T22:39:24.388Z,92.21
2022-12-11T22:41:50.953Z,92.17
2022-12-11T22:44:19.761Z,92.18
2022-12-11T22:46:50.018Z,92.36
2022-12-11T22:49:17.456Z,92.30
2022-12-11T22:51:44.026Z,92.50
2022-12-11T22:54:10.598Z,92.39
2022-12-11T22:56:37.121Z,92.26
2022-12-11T22:59:03.715Z,92.69
2022-12-11T23:01:30.250Z,92.78
2022-12-11T23:03:56.743Z,92.54
2022-12-11T23:06:24.956Z,92.61
2022-12-11T23:08:55.036Z,92.58
2022-12-11T23:11:25.203Z,92.86
2022-12-11T23:13:52.656Z,92.51
2022-12-11T23:16:19.635Z,92.81
2022-12-11T23:18:46.200Z,92.36
2022-12-11T23:21:13.168Z,92.59
2022-12-11T23:23:40.460Z,92.76
2022-12-11T23:26:08.608Z,92.85
2022-12-11T23:28:35.014Z,92.60
2022-12-11T23:31:01.939Z,92.85
2022-12-11T23:33:28.823Z,92.88
2022-12-11T23:35:55.524Z,93.07
2022-12-11T23:38:22.132Z,92.69
2022-12-11T23:40:48.584Z,92.60
2022-12-11T23:43:15.026Z,93.05
2022-12-11T23:45:44.712Z,93.14
2022-12-11T23:48:12.669Z,92.56
2022-12-11T23:50:40.764Z,93.06
2022-12-11T23:53:07.307Z,92.78
2022-12-11T23:55:34.071Z,92.83
2022-12-11T23:58:00.964Z,92.96
